createdAt,value
2023-03-29T00:02:30.721Z,4.70
2023-03-29T00:04:58.422Z,6.53
2023-03-29T00:07:26.629Z,8.80
2023-03-29T00:09:53.761Z,5.77
2023-03-29T00:12:20.880Z,4.37
2023-03-29T00:14:48.236Z,19.20
2023-03-29T00:17:15.702Z,5.53
2023-03-29T00:19:46.875Z,4.13
2023-03-29T00:22:14.311Z,4.10
2023-03-29T00:24:41.509Z,4.93
2023-03-29T00:27:08.669Z,3.77
2023-03-29T00:29:35.875Z,8.63
2023-03-29T00:32:03.006Z,7.37
2023-03-29T00:34:32.845Z,3.80
2023-03-29T00:36:59.998Z,4.07
2023-03-29T00:39:28.621Z,2.77
2023-03-29T00:41:56.081Z,2.40
2023-03-29T00:44:58.987Z,12.70
2023-03-29T00:47:55.900Z,3.33
2023-03-29T00:50:31.214Z,4.77
2023-03-29T00:53:03.861Z,2.20
2023-03-29T00:55:43.193Z,4.10
2023-03-29T00:58:14.606Z,2.97
2023-03-29T01:00:52.449Z,3.77
2023-03-29T01:03:27.721Z,4.83
2023-03-29T01:06:00.972Z,10.23
2023-03-29T01:08:35.185Z,3.03
2023-03-29T01:11:31.224Z,4.50
2023-03-29T01:14:04.096Z,4.13
2023-03-29T01:16:35.355Z,3.10
2023-03-29T01:19:02.868Z,7.03
2023-03-29T01:21:51.920Z,5.80
2023-03-29T01:24:34.243Z,5.90
2023-03-29T01:27:11.656Z,3.60
2023-03-29T01:29:50.540Z,7.17
2023-03-29T01:32:23.654Z,4.87
2023-03-29T01:35:12.007Z,5.27
2023-03-29T01:37:58.717Z,7.13
2023-03-29T01:40:28.453Z,2.70
2023-03-29T01:43:28.246Z,2.63
2023-03-29T01:46:05.461Z,2.47
2023-03-29T01:48:57.024Z,3.95
2023-03-29T01:51:42.178Z,3.87
2023-03-29T01:54:16.593Z,4.80
2023-03-29T01:56:45.859Z,3.63
2023-03-29T01:59:22.918Z,2.70
2023-03-29T02:01:54.714Z,3.97
2023-03-29T02:04:30.254Z,2.90
2023-03-29T02:06:59.752Z,4.70
2023-03-29T02:09:29.753Z,4.00
2023-03-29T02:12:01.261Z,4.00
2023-03-29T02:14:30.791Z,2.53
2023-03-29T02:17:15.374Z,2.90
2023-03-29T02:19:43.748Z,4.67
2023-03-29T02:22:11.179Z,5.50
2023-03-29T02:24:41.101Z,2.60
2023-03-29T02:27:08.718Z,4.23
2023-03-29T02:29:36.034Z,2.50
2023-03-29T02:32:21.631Z,1.83
2023-03-29T02:34:59.066Z,2.50
2023-03-29T02:37:30.619Z,2.87
2023-03-29T02:39:59.321Z,2.93
2023-03-29T02:42:28.181Z,3.63
2023-03-29T02:44:59.152Z,2.60
2023-03-29T02:47:33.256Z,2.97
2023-03-29T02:50:00.794Z,2.50
2023-03-29T02:52:34.456Z,3.43
2023-03-29T02:55:06.008Z,4.23
2023-03-29T02:57:33.511Z,4.07
2023-03-29T03:00:01.397Z,5.60
2023-03-29T03:02:30.493Z,3.33
2023-03-29T03:04:58.035Z,4.27
2023-03-29T03:07:25.546Z,2.80
2023-03-29T03:09:53.251Z,3.13
2023-03-29T03:12:20.746Z,6.80
2023-03-29T03:14:48.596Z,2.23
2023-03-29T03:17:19.268Z,2.90
2023-03-29T03:19:47.738Z,4.67
2023-03-29T03:22:15.550Z,2.17
2023-03-29T03:24:43.485Z,3.60
2023-03-29T03:27:12.075Z,7.50
2023-03-29T03:29:39.767Z,4.70
2023-03-29T03:32:25.694Z,1.87
2023-03-29T03:35:12.436Z,3.47
2023-03-29T03:37:41.208Z,3.20
2023-03-29T03:40:09.690Z,4.03
2023-03-29T03:42:37.863Z,4.47
2023-03-29T03:45:06.210Z,2.57
2023-03-29T03:48:10.175Z,6.10
2023-03-29T03:50:57.292Z,2.67
2023-03-29T03:53:28.120Z,3.50
2023-03-29T03:56:14.206Z,2.40
2023-03-29T03:59:07.930Z,3.27
2023-03-29T04:01:48.043Z,2.17
2023-03-29T04:04:20.333Z,1.97
2023-03-29T04:07:13.337Z,2.37
2023-03-29T04:09:57.298Z,6.13
2023-03-29T04:12:47.507Z,3.87
2023-03-29T04:15:18.306Z,2.97
2023-03-29T04:17:52.135Z,2.42
2023-03-29T04:20:26.642Z,4.20
2023-03-29T04:22:54.528Z,4.00
2023-03-29T04:25:22.633Z,5.07
2023-03-29T04:28:12.347Z,1.50
2023-03-29T04:30:49.310Z,3.63
2023-03-29T04:33:41.685Z,4.33
2023-03-29T04:36:09.910Z,9.77
2023-03-29T04:38:38.165Z,4.47
2023-03-29T04:41:05.807Z,5.57
2023-03-29T04:44:08.715Z,4.80
2023-03-29T04:46:36.142Z,4.93
2023-03-29T04:49:20.468Z,6.00
2023-03-29T04:51:51.209Z,2.93
2023-03-29T04:54:21.922Z,4.43
2023-03-29T04:57:14.950Z,4.57
2023-03-29T04:59:54.890Z,11.53
2023-03-29T05:02:58.550Z,6.13
2023-03-29T05:05:28.090Z,4.97
2023-03-29T05:07:57.037Z,3.43
2023-03-29T05:10:32.063Z,3.00
2023-03-29T05:12:59.673Z,2.70
2023-03-29T05:15:27.772Z,3.17
2023-03-29T05:17:55.958Z,2.30
2023-03-29T05:20:23.549Z,6.87
2023-03-29T05:22:50.885Z,5.57
2023-03-29T05:25:37.931Z,3.28
2023-03-29T05:28:05.137Z,4.53
2023-03-29T05:30:32.625Z,4.97
2023-03-29T05:33:08.303Z,4.97
2023-03-29T05:35:36.291Z,10.47
2023-03-29T05:38:06.992Z,8.43
2023-03-29T05:40:36.075Z,3.07
2023-03-29T05:43:23.751Z,7.47
2023-03-29T05:45:56.770Z,3.50
2023-03-29T05:48:25.189Z,3.40
2023-03-29T05:50:54.856Z,4.33
2023-03-29T05:53:23.959Z,3.00
2023-03-29T05:55:51.882Z,3.50
2023-03-29T05:58:21.876Z,9.00
2023-03-29T06:00:50.474Z,4.03
2023-03-29T06:03:37.125Z,5.40
2023-03-29T06:06:05.459Z,4.30
2023-03-29T06:08:35.428Z,8.50
2023-03-29T06:11:13.788Z,4.07
2023-03-29T06:14:07.044Z,3.93
2023-03-29T06:16:39.636Z,3.23
2023-03-29T06:19:08.991Z,5.73
2023-03-29T06:21:37.440Z,3.60
2023-03-29T06:24:07.147Z,5.67
2023-03-29T06:26:39.718Z,3.50
2023-03-29T06:29:07.088Z,4.30
2023-03-29T06:31:36.524Z,6.37
2023-03-29T06:34:05.190Z,3.43
2023-03-29T06:36:55.318Z,3.83
2023-03-29T06:39:22.791Z,3.60
2023-03-29T06:41:53.303Z,3.30
2023-03-29T06:44:33.013Z,5.27
2023-03-29T06:47:07.751Z,3.97
2023-03-29T06:49:35.129Z,5.27
2023-03-29T06:52:11.569Z,3.90
2023-03-29T06:54:39.205Z,9.77
2023-03-29T06:57:06.337Z,4.67
2023-03-29T06:59:35.144Z,3.80
2023-03-29T07:02:23.012Z,3.47
2023-03-29T07:04:56.588Z,8.47
2023-03-29T07:07:53.864Z,4.27
2023-03-29T07:10:47.767Z,6.67
2023-03-29T07:13:44.523Z,4.33
2023-03-29T07:16:15.096Z,3.77
2023-03-29T07:18:49.509Z,4.13
2023-03-29T07:21:31.203Z,5.97
2023-03-29T07:23:58.685Z,9.83
2023-03-29T07:26:28.890Z,8.60
2023-03-29T07:28:59.126Z,4.40
2023-03-29T07:31:26.370Z,6.97
2023-03-29T07:34:12.380Z,4.27
2023-03-29T07:36:40.065Z,6.87
2023-03-29T07:39:09.430Z,11.93
2023-03-29T07:41:39.030Z,3.60
2023-03-29T07:44:12.299Z,8.37
2023-03-29T07:46:39.548Z,4.23
2023-03-29T07:49:08.463Z,4.43
2023-03-29T07:51:37.020Z,3.13
2023-03-29T07:54:08.937Z,4.10
2023-03-29T07:56:42.688Z,3.00
2023-03-29T07:59:18.376Z,5.60
2023-03-29T08:01:51.045Z,2.80
2023-03-29T08:04:25.754Z,3.33
2023-03-29T08:07:10.881Z,5.10
2023-03-29T08:09:58.331Z,4.72
2023-03-29T08:12:53.946Z,5.05
2023-03-29T08:15:28.418Z,4.50
2023-03-29T08:17:56.115Z,5.75
2023-03-29T08:20:23.456Z,6.57
2023-03-29T08:22:55.330Z,4.03
2023-03-29T08:25:42.728Z,3.30
2023-03-29T08:28:10.597Z,4.10
2023-03-29T08:30:45.158Z,7.30
2023-03-29T08:33:12.547Z,2.35
2023-03-29T08:35:39.928Z,3.13
2023-03-29T08:38:17.057Z,9.77
2023-03-29T08:40:56.667Z,4.07
2023-03-29T08:43:31.844Z,3.42
2023-03-29T08:46:39.939Z,6.38
2023-03-29T08:49:35.607Z,2.67
2023-03-29T08:52:14.569Z,7.95
2023-03-29T08:54:48.985Z,3.60
2023-03-29T08:57:37.068Z,3.80
2023-03-29T09:00:21.461Z,12.05
2023-03-29T09:02:54.159Z,4.68
2023-03-29T09:05:32.315Z,5.35
2023-03-29T09:08:19.220Z,3.83
2023-03-29T09:11:20.702Z,8.20
2023-03-29T09:13:57.276Z,8.52
2023-03-29T09:16:45.361Z,3.30
2023-03-29T09:19:27.464Z,3.67
2023-03-29T09:22:20.115Z,4.32
2023-03-29T09:25:24.269Z,3.50
2023-03-29T09:28:03.929Z,7.20
2023-03-29T09:30:53.780Z,4.13
2023-03-29T09:33:33.030Z,4.97
2023-03-29T09:36:31.172Z,16.67
2023-03-29T09:38:59.392Z,5.22
2023-03-29T09:41:44.200Z,5.50
2023-03-29T09:44:30.103Z,4.45
2023-03-29T09:47:17.762Z,9.65
2023-03-29T09:49:50.052Z,8.43
2023-03-29T09:52:21.355Z,2.47
2023-03-29T09:55:04.174Z,1.90
2023-03-29T09:57:52.614Z,6.28
2023-03-29T10:00:23.229Z,3.83
2023-03-29T10:02:56.054Z,3.45
2023-03-29T10:05:36.979Z,7.60
2023-03-29T10:08:19.945Z,3.13
2023-03-29T10:10:50.424Z,2.70
2023-03-29T10:13:28.831Z,6.30
2023-03-29T10:16:08.840Z,2.45
2023-03-29T10:18:43.938Z,2.55
2023-03-29T10:21:22.549Z,1.90
2023-03-29T10:23:57.130Z,4.03
2023-03-29T10:26:33.290Z,6.57
2023-03-29T10:29:08.176Z,7.15
2023-03-29T10:31:41.980Z,3.28
2023-03-29T10:34:18.893Z,6.22
2023-03-29T10:37:00.929Z,3.47
2023-03-29T10:39:33.285Z,3.05
2023-03-29T10:42:04.804Z,11.02
2023-03-29T10:44:37.612Z,4.88
2023-03-29T10:47:18.265Z,2.95
2023-03-29T10:49:51.059Z,2.53
2023-03-29T10:52:19.163Z,4.97
2023-03-29T10:54:47.940Z,4.10
2023-03-29T10:57:46.082Z,3.20
2023-03-29T11:00:33.688Z,2.17
2023-03-29T11:03:35.639Z,3.00
2023-03-29T11:06:23.704Z,3.22
2023-03-29T11:08:59.992Z,3.42
2023-03-29T11:12:14.869Z,3.03
2023-03-29T11:14:52.862Z,4.70
2023-03-29T11:17:34.270Z,2.78
2023-03-29T11:20:04.442Z,3.05
2023-03-29T11:22:47.914Z,3.80
2023-03-29T11:25:27.183Z,4.05
2023-03-29T11:28:32.483Z,5.80
2023-03-29T11:31:45.292Z,3.63
2023-03-29T11:34:25.149Z,3.63
2023-03-29T11:37:21.387Z,4.53
2023-03-29T11:40:07.412Z,2.47
2023-03-29T11:42:40.848Z,4.72
2023-03-29T11:45:16.576Z,4.90
2023-03-29T11:47:46.512Z,8.77
2023-03-29T11:50:29.595Z,2.47
2023-03-29T11:53:10.381Z,5.32
2023-03-29T11:55:40.388Z,5.57
2023-03-29T11:58:29.471Z,5.05
2023-03-29T12:01:20.328Z,4.90
2023-03-29T12:03:56.370Z,4.93
2023-03-29T12:06:32.259Z,4.93
2023-03-29T12:09:14.856Z,4.97
2023-03-29T12:12:14.888Z,6.97
2023-03-29T12:15:00.653Z,3.97
2023-03-29T12:17:33.409Z,5.38
2023-03-29T12:20:18.639Z,2.70
2023-03-29T12:22:51.347Z,2.72
2023-03-29T12:25:28.682Z,4.90
2023-03-29T12:30:43.924Z,3.30
2023-03-29T12:33:22.962Z,6.03
2023-03-29T12:37:01.382Z,2.55
2023-03-29T12:39:55.394Z,7.47
2023-03-29T12:43:05.606Z,4.78
2023-03-29T12:46:06.221Z,4.35
2023-03-29T12:48:35.763Z,2.80
2023-03-29T12:51:13.829Z,6.05
2023-03-29T12:53:46.337Z,9.13
2023-03-29T12:56:36.711Z,3.22
2023-03-29T13:02:04.574Z,3.47
2023-03-29T13:04:51.455Z,2.28
2023-03-29T13:07:26.700Z,8.27
2023-03-29T13:10:01.814Z,3.85
2023-03-29T13:12:37.739Z,2.17
2023-03-29T13:15:08.271Z,3.63
2023-03-29T13:18:02.000Z,4.32
2023-03-29T13:20:57.233Z,3.78
2023-03-29T13:24:03.441Z,3.72
2023-03-29T13:26:51.863Z,6.43
2023-03-29T13:29:49.163Z,18.35
2023-03-29T13:32:47.482Z,3.00
2023-03-29T13:35:28.242Z,4.72
2023-03-29T13:38:33.332Z,1.45
2023-03-29T13:41:10.438Z,4.88
2023-03-29T13:43:53.720Z,4.07
2023-03-29T13:46:37.745Z,4.80
2023-03-29T13:49:16.538Z,3.92
2023-03-29T13:51:57.263Z,5.07
2023-03-29T13:54:35.452Z,4.07
2023-03-29T13:57:21.892Z,7.03
2023-03-29T14:00:19.525Z,7.20
2023-03-29T14:02:58.313Z,5.28
2023-03-29T14:05:34.808Z,3.80
2023-03-29T14:08:16.620Z,3.38
2023-03-29T14:10:45.740Z,6.35
2023-03-29T14:13:24.861Z,5.10
2023-03-29T14:15:59.775Z,4.25
2023-03-29T14:18:38.132Z,3.30
2023-03-29T14:21:19.456Z,6.03
2023-03-29T14:23:54.232Z,5.38
2023-03-29T14:26:24.618Z,6.55
2023-03-29T14:29:02.590Z,7.88
2023-03-29T14:31:40.322Z,4.55
2023-03-29T14:34:16.292Z,4.95
2023-03-29T14:36:49.565Z,7.65
2023-03-29T14:39:19.592Z,5.55
2023-03-29T14:41:52.524Z,11.07
2023-03-29T14:44:25.994Z,4.38
2023-03-29T14:46:54.084Z,6.50
2023-03-29T14:49:23.501Z,5.65
2023-03-29T14:51:52.096Z,5.68
2023-03-29T14:54:34.627Z,4.13
2023-03-29T14:57:08.619Z,5.88
2023-03-29T14:59:42.532Z,5.72
2023-03-29T15:02:30.485Z,9.85
2023-03-29T15:05:25.701Z,5.07
2023-03-29T15:07:57.610Z,5.53
2023-03-29T15:10:27.583Z,8.80
2023-03-29T15:12:56.368Z,2.75
2023-03-29T15:15:26.376Z,4.55
2023-03-29T15:17:54.141Z,5.03
2023-03-29T15:20:35.104Z,5.68
2023-03-29T15:23:18.165Z,6.78
2023-03-29T15:25:59.083Z,5.78
2023-03-29T15:28:33.078Z,4.55
2023-03-29T15:31:18.316Z,5.25
2023-03-29T15:33:47.261Z,17.85
2023-03-29T15:36:20.532Z,5.72
2023-03-29T15:38:50.293Z,7.03
2023-03-29T15:41:17.732Z,13.95
2023-03-29T15:43:45.179Z,6.43
2023-03-29T15:46:15.458Z,6.60
2023-03-29T15:48:54.788Z,4.90
2023-03-29T15:51:22.294Z,9.18
2023-03-29T15:53:51.982Z,8.77
2023-03-29T15:56:21.496Z,6.50
2023-03-29T15:58:49.512Z,8.43
2023-03-29T16:01:34.292Z,7.70
2023-03-29T16:04:12.655Z,7.22
2023-03-29T16:06:40.976Z,8.13
2023-03-29T16:09:09.115Z,6.15
2023-03-29T16:11:36.427Z,12.45
2023-03-29T16:14:07.081Z,6.22
2023-03-29T16:16:35.348Z,5.95
2023-03-29T16:19:02.603Z,8.25
2023-03-29T16:21:29.951Z,8.27
2023-03-29T16:23:59.540Z,8.52
2023-03-29T16:26:32.032Z,10.60
2023-03-29T16:29:01.843Z,12.80
2023-03-29T16:31:31.451Z,17.77
2023-03-29T16:33:58.755Z,8.73
2023-03-29T16:36:26.538Z,12.02
2023-03-29T16:38:53.878Z,10.82
2023-03-29T16:41:21.887Z,6.38
2023-03-29T16:43:49.120Z,6.40
2023-03-29T16:46:16.369Z,6.05
2023-03-29T16:48:43.686Z,5.07
2023-03-29T16:51:11.190Z,5.07
2023-03-29T16:53:38.542Z,4.78
2023-03-29T16:56:06.272Z,3.88
2023-03-29T16:58:33.490Z,5.05
2023-03-29T17:01:10.002Z,4.13
2023-03-29T17:03:37.733Z,3.35
2023-03-29T17:06:06.173Z,8.00
2023-03-29T17:08:33.650Z,7.57
2023-03-29T17:11:01.697Z,7.85
2023-03-29T17:13:30.023Z,15.27
2023-03-29T17:15:58.038Z,18.85
2023-03-29T17:18:26.798Z,21.45
2023-03-29T17:20:57.528Z,22.70
2023-03-29T17:23:25.022Z,20.40
2023-03-29T17:25:54.889Z,11.07
2023-03-29T17:28:22.898Z,7.47
2023-03-29T17:30:50.333Z,10.32
2023-03-29T17:33:19.087Z,5.93
2023-03-29T17:35:48.827Z,13.98
2023-03-29T17:38:16.180Z,10.27
2023-03-29T17:40:43.461Z,12.80
2023-03-29T17:43:10.644Z,11.15
2023-03-29T17:45:37.817Z,16.02
2023-03-29T17:48:06.379Z,13.32
2023-03-29T17:50:34.614Z,17.73
2023-03-29T17:53:01.708Z,22.80
2023-03-29T17:55:28.862Z,18.58
2023-03-29T17:57:56.638Z,20.38
2023-03-29T18:00:23.989Z,24.40
2023-03-29T18:02:51.700Z,18.17
2023-03-29T18:05:18.979Z,16.77
2023-03-29T18:07:46.752Z,20.05
2023-03-29T18:10:13.944Z,15.82
2023-03-29T18:12:41.456Z,19.52
2023-03-29T18:15:09.427Z,19.85
2023-03-29T18:17:36.951Z,19.15
2023-03-29T18:20:11.977Z,18.45
2023-03-29T18:22:42.105Z,21.60
2023-03-29T18:25:10.419Z,22.80
2023-03-29T18:27:39.845Z,27.25
2023-03-29T18:30:08.888Z,27.70
2023-03-29T18:32:37.069Z,22.52
2023-03-29T18:35:05.548Z,28.67
2023-03-29T18:37:33.157Z,38.78
2023-03-29T18:40:00.602Z,39.33
2023-03-29T18:42:28.076Z,18.52
2023-03-29T18:44:55.881Z,23.95
2023-03-29T18:47:22.940Z,34.92
2023-03-29T18:49:53.465Z,29.25
2023-03-29T18:52:20.615Z,35.97
2023-03-29T18:54:48.100Z,29.70
2023-03-29T18:57:15.408Z,25.55
2023-03-29T18:59:42.784Z,25.50
2023-03-29T19:02:10.366Z,20.98
2023-03-29T19:04:37.476Z,35.50
2023-03-29T19:09:50.234Z,8.93
2023-03-29T19:12:17.357Z,11.50
2023-03-29T19:14:44.971Z,8.02
2023-03-29T19:17:12.116Z,11.73
2023-03-29T19:19:39.263Z,12.50
2023-03-29T19:22:06.820Z,23.70
2023-03-29T19:24:33.967Z,31.27
2023-03-29T19:27:02.090Z,24.60
2023-03-29T19:29:29.316Z,16.17
2023-03-29T19:31:57.495Z,12.32
2023-03-29T19:34:24.915Z,12.25
2023-03-29T19:36:53.725Z,12.82
2023-03-29T19:39:22.438Z,17.55
2023-03-29T19:41:49.615Z,14.48
2023-03-29T19:44:16.913Z,29.70
2023-03-29T19:46:44.314Z,22.67
2023-03-29T19:49:13.930Z,25.35
2023-03-29T19:51:42.492Z,30.90
2023-03-29T19:54:13.172Z,40.30
2023-03-29T19:56:41.010Z,31.83
2023-03-29T19:59:11.314Z,28.73
2023-03-29T20:01:39.680Z,36.63
2023-03-29T20:04:07.089Z,31.95
2023-03-29T20:06:34.631Z,27.38
2023-03-29T20:09:02.318Z,28.08
2023-03-29T20:11:29.687Z,23.85
2023-03-29T20:13:57.684Z,32.25
2023-03-29T20:16:26.344Z,26.20
2023-03-29T20:18:54.312Z,30.40
2023-03-29T20:21:21.441Z,27.38
2023-03-29T20:23:48.599Z,30.42
2023-03-29T20:26:15.670Z,34.85
2023-03-29T20:28:42.977Z,32.40
2023-03-29T20:31:13.754Z,29.17
2023-03-29T20:33:41.845Z,30.05
2023-03-29T20:36:16.691Z,32.58
2023-03-29T20:38:45.455Z,27.45
2023-03-29T20:41:14.302Z,28.40
2023-03-29T20:43:47.185Z,32.67
2023-03-29T20:46:24.247Z,34.10
2023-03-29T20:48:54.776Z,34.53
2023-03-29T20:51:28.433Z,30.85
2023-03-29T20:54:02.841Z,42.65
2023-03-29T20:56:33.825Z,45.47
2023-03-29T20:59:01.440Z,57.85
2023-03-29T21:01:30.556Z,73.65
2023-03-29T21:03:57.990Z,63.03
2023-03-29T21:06:25.304Z,74.22
2023-03-29T21:08:52.942Z,62.38
2023-03-29T21:11:25.182Z,60.00
2023-03-29T21:14:03.022Z,65.38
2023-03-29T21:16:32.332Z,65.53
2023-03-29T21:19:01.930Z,64.43
2023-03-29T21:21:36.329Z,57.55
2023-03-29T21:24:06.081Z,59.25
2023-03-29T21:26:33.669Z,52.13
2023-03-29T21:29:01.581Z,53.92
2023-03-29T21:31:28.878Z,41.60
2023-03-29T21:34:01.363Z,37.10
2023-03-29T21:36:28.682Z,28.63
2023-03-29T21:38:56.268Z,33.28
2023-03-29T21:41:23.559Z,31.13
2023-03-29T21:43:58.241Z,35.60
2023-03-29T21:46:30.859Z,31.02
2023-03-29T21:48:58.496Z,26.10
2023-03-29T21:51:29.127Z,22.48
2023-03-29T21:53:56.790Z,22.48
2023-03-29T21:56:23.874Z,25.63
2023-03-29T21:58:51.763Z,19.73
2023-03-29T22:01:18.857Z,22.30
2023-03-29T22:03:46.996Z,20.17
2023-03-29T22:06:15.700Z,20.67
2023-03-29T22:08:42.990Z,29.30
2023-03-29T22:11:20.471Z,30.67
2023-03-29T22:13:52.366Z,44.97
2023-03-29T22:16:26.307Z,41.30
2023-03-29T22:18:56.202Z,37.80
2023-03-29T22:21:27.684Z,46.42
2023-03-29T22:24:01.666Z,49.20
2023-03-29T22:26:34.401Z,43.55
2023-03-29T22:29:04.813Z,36.08
2023-03-29T22:31:32.478Z,30.73
2023-03-29T22:34:01.218Z,30.30
2023-03-29T22:36:37.446Z,25.07
2023-03-29T22:39:07.729Z,30.17
2023-03-29T22:41:34.796Z,33.15
2023-03-29T22:44:02.404Z,33.50
2023-03-29T22:46:30.464Z,29.20
2023-03-29T22:48:58.281Z,27.57
2023-03-29T22:51:25.525Z,15.63
2023-03-29T22:53:54.475Z,15.33
2023-03-29T22:56:22.307Z,17.77
2023-03-29T22:58:50.056Z,17.13
2023-03-29T23:01:17.205Z,12.67
2023-03-29T23:03:44.941Z,13.23
2023-03-29T23:06:12.214Z,15.43
2023-03-29T23:08:39.846Z,19.50
2023-03-29T23:11:07.996Z,18.03
2023-03-29T23:13:35.430Z,16.90
2023-03-29T23:16:03.893Z,27.93
2023-03-29T23:18:35.146Z,16.90
2023-03-29T23:21:02.839Z,15.87
2023-03-29T23:23:30.153Z,18.40
2023-03-29T23:25:57.715Z,26.50
2023-03-29T23:28:27.690Z,19.03
2023-03-29T23:31:18.608Z,18.80
2023-03-29T23:33:46.597Z,19.07
2023-03-29T23:36:15.967Z,24.20
2023-03-29T23:38:45.695Z,27.00
2023-03-29T23:41:13.759Z,19.30
2023-03-29T23:43:44.027Z,25.93
2023-03-29T23:46:14.590Z,19.07
2023-03-29T23:48:49.542Z,23.67
2023-03-29T23:51:19.375Z,22.10
2023-03-29T23:53:50.918Z,18.20
2023-03-29T23:56:18.344Z,25.17
2023-03-29T23:58:45.609Z,25.17
